createdAt,value
2022-11-05T00:01:15.807Z,11.86
2022-11-05T00:05:01.354Z,11.90
2022-11-05T00:08:41.269Z,11.73
2022-11-05T00:12:25.261Z,11.62
2022-11-05T00:16:05.566Z,11.58
2022-11-05T00:19:30.377Z,11.82
2022-11-05T00:23:22.364Z,11.77
2022-11-05T00:26:45.952Z,11.43
2022-11-05T00:30:11.325Z,11.32
2022-11-05T00:33:32.981Z,11.35
2022-11-05T00:36:54.534Z,11.40
2022-11-05T00:40:18.416Z,11.42
2022-11-05T00:44:14.759Z,11.55
2022-11-05T00:47:54.473Z,11.38
2022-11-05T00:51:16.002Z,11.45
2022-11-05T00:54:37.549Z,11.49
2022-11-05T00:58:00.649Z,11.34
2022-11-05T01:01:27.255Z,11.45
2022-11-05T01:04:53.334Z,11.52
2022-11-05T01:08:19.152Z,11.55
2022-11-05T01:11:42.941Z,11.56
2022-11-05T01:15:07.647Z,11.61
2022-11-05T01:18:29.150Z,11.56
2022-11-05T01:21:52.855Z,11.65
2022-11-05T01:25:14.513Z,11.73
2022-11-05T01:28:36.097Z,11.70
2022-11-05T01:32:00.286Z,11.66
2022-11-05T01:35:22.018Z,11.66
2022-11-05T01:38:46.018Z,11.70
2022-11-05T01:42:28.550Z,11.70
2022-11-05T01:45:52.790Z,11.76
2022-11-05T01:49:27.966Z,11.72
2022-11-05T01:52:58.305Z,11.58
2022-11-05T01:56:42.394Z,11.55
2022-11-05T02:00:07.211Z,10.94
2022-11-05T02:03:29.669Z,11.03
2022-11-05T02:06:51.274Z,11.15
2022-11-05T02:10:18.283Z,10.93
2022-11-05T02:13:44.645Z,10.88
2022-11-05T02:17:30.558Z,10.81
2022-11-05T02:21:18.350Z,10.84
2022-11-05T02:24:56.149Z,10.74
2022-11-05T02:29:04.620Z,10.98
2022-11-05T02:33:07.873Z,10.50
2022-11-05T02:36:47.094Z,10.55
2022-11-05T02:40:14.010Z,10.70
2022-11-05T02:44:03.806Z,10.90
2022-11-05T02:47:44.880Z,10.77
2022-11-05T02:51:24.529Z,10.85
2022-11-05T02:54:55.388Z,10.84
2022-11-05T02:58:19.148Z,10.49
2022-11-05T03:01:45.743Z,10.57
2022-11-05T03:05:07.385Z,10.69
2022-11-05T03:09:03.237Z,10.76
2022-11-05T03:12:39.989Z,10.81
2022-11-05T03:16:10.181Z,10.50
2022-11-05T03:19:58.234Z,10.41
2022-11-05T03:23:34.782Z,10.26
2022-11-05T03:27:04.963Z,10.15
2022-11-05T03:30:26.851Z,10.36
2022-11-05T03:33:50.609Z,10.42
2022-11-05T03:37:12.170Z,10.56
2022-11-05T03:40:36.046Z,10.63
2022-11-05T03:44:03.546Z,10.52
2022-11-05T03:47:35.264Z,10.36
2022-11-05T03:51:12.822Z,10.49
2022-11-05T03:54:36.889Z,10.16
2022-11-05T03:57:59.109Z,10.22
2022-11-05T04:01:20.745Z,10.16
2022-11-05T04:04:42.734Z,10.42
2022-11-05T04:08:22.750Z,10.53
2022-11-05T04:12:03.212Z,10.64
2022-11-05T04:15:27.133Z,10.73
2022-11-05T04:18:48.695Z,10.64
2022-11-05T04:22:28.734Z,10.61
2022-11-05T04:25:53.266Z,10.59
2022-11-05T04:29:33.230Z,10.66
2022-11-05T04:33:04.496Z,10.60
2022-11-05T04:36:26.150Z,10.66
2022-11-05T04:39:52.250Z,10.63
2022-11-05T04:43:17.155Z,10.56
2022-11-05T04:46:39.007Z,10.61
2022-11-05T04:50:02.861Z,10.60
2022-11-05T04:53:26.623Z,10.59
2022-11-05T04:56:48.128Z,10.46
2022-11-05T05:00:11.198Z,10.43
2022-11-05T05:03:35.086Z,10.21
2022-11-05T05:06:56.642Z,9.93
2022-11-05T05:10:20.249Z,10.02
2022-11-05T05:13:42.055Z,10.19
2022-11-05T05:17:03.565Z,10.39
2022-11-05T05:20:43.815Z,10.39
2022-11-05T05:24:19.243Z,10.41
2022-11-05T05:27:42.676Z,10.43
2022-11-05T05:31:05.907Z,10.49
2022-11-05T05:34:30.432Z,10.52
2022-11-05T05:37:55.737Z,10.49
2022-11-05T05:41:17.655Z,10.48
2022-11-05T05:44:41.530Z,10.26
2022-11-05T05:48:04.258Z,10.41
2022-11-05T05:51:25.838Z,10.33
2022-11-05T05:54:47.408Z,10.33
2022-11-05T05:58:08.953Z,10.25
2022-11-05T06:01:30.514Z,10.22
2022-11-05T06:04:55.164Z,10.32
2022-11-05T06:08:19.356Z,10.35
2022-11-05T06:11:41.321Z,10.28
2022-11-05T06:15:05.932Z,10.42
2022-11-05T06:18:30.444Z,10.50
2022-11-05T06:21:52.051Z,10.48
2022-11-05T06:25:15.995Z,10.39
2022-11-05T06:28:37.754Z,10.45
2022-11-05T06:31:59.295Z,10.42
2022-11-05T06:35:23.197Z,10.46
2022-11-05T06:38:44.994Z,10.46
2022-11-05T06:42:18.225Z,10.22
2022-11-05T06:45:40.294Z,10.28
2022-11-05T06:49:01.935Z,10.49
2022-11-05T06:52:23.429Z,10.64
2022-11-05T06:55:50.038Z,10.80
2022-11-05T06:59:11.592Z,10.93
2022-11-05T07:02:33.160Z,10.97
2022-11-05T07:05:57.445Z,10.94
2022-11-05T07:09:21.310Z,10.88
2022-11-05T07:12:45.345Z,11.00
2022-11-05T07:16:13.257Z,10.98
2022-11-05T07:19:34.904Z,10.76
2022-11-05T07:23:06.465Z,10.56
2022-11-05T07:26:34.355Z,10.41
2022-11-05T07:29:56.389Z,10.64
2022-11-05T07:33:17.998Z,10.52
2022-11-05T07:36:41.143Z,10.73
2022-11-05T07:40:05.545Z,10.79
2022-11-05T07:43:27.255Z,10.67
2022-11-05T07:46:49.868Z,10.04
2022-11-05T07:50:13.792Z,9.46
2022-11-05T07:53:35.420Z,9.80
2022-11-05T07:56:58.150Z,10.14
2022-11-05T08:00:24.487Z,10.11
2022-11-05T08:03:46.344Z,10.05
2022-11-05T08:07:08.377Z,10.31
2022-11-05T08:10:29.960Z,10.22
2022-11-05T08:13:51.475Z,10.33
2022-11-05T08:17:18.398Z,10.31
2022-11-05T08:20:41.674Z,10.15
2022-11-05T08:24:03.340Z,10.32
2022-11-05T08:27:24.889Z,10.53
2022-11-05T08:30:57.814Z,10.49
2022-11-05T08:34:24.498Z,10.73
2022-11-05T08:37:46.070Z,10.71
2022-11-05T08:41:10.394Z,10.83
2022-11-05T08:44:35.406Z,10.91
2022-11-05T08:48:04.509Z,10.88
2022-11-05T08:51:28.282Z,10.69
2022-11-05T08:54:52.109Z,10.94
2022-11-05T08:58:17.186Z,11.04
2022-11-05T09:01:42.094Z,11.12
2022-11-05T09:05:03.943Z,11.29
2022-11-05T09:08:25.873Z,11.36
2022-11-05T09:12:11.269Z,11.35
2022-11-05T09:15:32.104Z,11.25
2022-11-05T09:18:57.166Z,10.80
2022-11-05T09:22:18.660Z,10.73
2022-11-05T09:25:40.428Z,10.96
2022-11-05T09:29:02.109Z,11.21
2022-11-05T09:32:26.023Z,11.14
2022-11-05T09:35:51.747Z,10.73
2022-11-05T09:39:13.328Z,10.88
2022-11-05T09:42:47.024Z,11.01
2022-11-05T09:46:27.016Z,11.22
2022-11-05T09:49:53.913Z,11.42
2022-11-05T09:53:20.248Z,11.49
2022-11-05T09:56:45.083Z,11.48
2022-11-05T10:00:08.598Z,11.67
2022-11-05T10:03:31.050Z,11.58
2022-11-05T10:06:59.424Z,11.76
2022-11-05T10:10:35.237Z,11.98
2022-11-05T10:14:13.834Z,12.38
2022-11-05T10:17:40.840Z,12.53
2022-11-05T10:21:06.791Z,12.76
2022-11-05T10:24:30.612Z,12.95
2022-11-05T10:27:57.709Z,12.53
2022-11-05T10:31:21.336Z,12.65
2022-11-05T10:34:43.284Z,12.48
2022-11-05T10:38:12.276Z,12.49
2022-11-05T10:41:39.045Z,12.08
2022-11-05T10:45:29.282Z,12.38
2022-11-05T10:48:59.835Z,12.32
2022-11-05T10:52:39.425Z,12.62
2022-11-05T10:56:00.995Z,12.86
2022-11-05T10:59:28.596Z,12.51
2022-11-05T11:03:05.624Z,12.72
2022-11-05T11:06:30.659Z,12.58
2022-11-05T11:09:52.848Z,12.44
2022-11-05T11:13:27.018Z,12.58
2022-11-05T11:16:57.229Z,12.45
2022-11-05T11:20:32.944Z,12.31
2022-11-05T11:24:07.142Z,12.69
2022-11-05T11:27:34.660Z,13.43
2022-11-05T11:31:24.141Z,14.27
2022-11-05T11:34:48.411Z,14.17
2022-11-05T11:38:14.642Z,14.24
2022-11-05T11:41:41.874Z,13.99
2022-11-05T11:45:15.696Z,13.72
2022-11-05T11:48:45.726Z,13.07
2022-11-05T11:52:13.856Z,13.10
2022-11-05T11:55:35.368Z,12.90
2022-11-05T11:59:01.185Z,13.02
2022-11-05T12:02:43.182Z,12.59
2022-11-05T12:06:29.957Z,12.68
2022-11-05T12:09:57.498Z,12.63
2022-11-05T12:13:19.055Z,12.61
2022-11-05T12:17:07.411Z,12.72
2022-11-05T12:20:40.807Z,13.00
2022-11-05T12:24:23.521Z,13.59
2022-11-05T12:28:08.743Z,14.23
2022-11-05T12:31:58.232Z,15.00
2022-11-05T12:35:47.050Z,14.84
2022-11-05T12:39:23.808Z,15.18
2022-11-05T12:42:58.824Z,14.22
2022-11-05T12:46:31.246Z,14.77
2022-11-05T12:50:15.229Z,14.40
2022-11-05T12:53:48.107Z,14.13
2022-11-05T12:57:13.021Z,14.14
2022-11-05T13:00:38.268Z,13.85
2022-11-05T13:04:06.663Z,13.64
2022-11-05T13:07:34.302Z,13.61
2022-11-05T13:10:59.807Z,13.68
2022-11-05T13:14:26.879Z,13.51
2022-11-05T13:18:10.700Z,13.55
2022-11-05T13:21:36.037Z,14.03
2022-11-05T13:25:02.727Z,14.51
2022-11-05T13:28:59.330Z,14.89
2022-11-05T13:33:03.760Z,15.20
2022-11-05T13:36:51.522Z,15.09
2022-11-05T13:40:17.797Z,14.98
2022-11-05T13:43:58.316Z,14.71
2022-11-05T13:47:43.182Z,14.81
2022-11-05T13:51:04.783Z,14.67
2022-11-05T13:54:33.233Z,14.43
2022-11-05T13:58:09.071Z,14.26
2022-11-05T14:01:56.988Z,13.95
2022-11-05T14:05:21.511Z,13.45
2022-11-05T14:08:45.232Z,13.47
2022-11-05T14:12:19.573Z,13.27
2022-11-05T14:15:55.164Z,13.21
2022-11-05T14:19:22.459Z,13.59
2022-11-05T14:22:48.799Z,14.02
2022-11-05T14:26:17.769Z,14.05
2022-11-05T14:29:45.364Z,14.43
2022-11-05T14:33:27.979Z,14.75
2022-11-05T14:37:11.347Z,15.00
2022-11-05T14:40:40.344Z,14.54
2022-11-05T14:44:06.861Z,14.85
2022-11-05T14:47:33.417Z,14.70
2022-11-05T14:50:55.131Z,14.52
2022-11-05T14:54:39.608Z,14.24
2022-11-05T14:58:04.892Z,13.99
2022-11-05T15:01:34.940Z,13.81
2022-11-05T15:05:34.114Z,13.65
2022-11-05T15:08:58.944Z,13.62
2022-11-05T15:12:30.123Z,13.45
2022-11-05T15:15:52.396Z,13.45
2022-11-05T15:19:25.727Z,13.44
2022-11-05T15:22:56.168Z,13.47
2022-11-05T15:26:47.128Z,13.41
2022-11-05T15:30:20.625Z,13.50
2022-11-05T15:33:44.148Z,13.86
2022-11-05T15:37:12.117Z,14.33
2022-11-05T15:40:38.170Z,14.56
2022-11-05T15:44:05.059Z,14.81
2022-11-05T15:47:31.679Z,14.91
2022-11-05T15:50:56.384Z,14.95
2022-11-05T15:54:36.519Z,15.03
2022-11-05T15:57:59.912Z,14.88
2022-11-05T16:01:50.043Z,14.37
2022-11-05T16:05:15.687Z,14.10
2022-11-05T16:08:39.435Z,13.83
2022-11-05T16:12:19.406Z,13.68
2022-11-05T16:15:56.125Z,13.47
2022-11-05T16:19:40.161Z,13.45
2022-11-05T16:23:23.691Z,13.31
2022-11-05T16:27:02.319Z,13.31
2022-11-05T16:30:25.143Z,13.27
2022-11-05T16:33:47.791Z,13.27
2022-11-05T16:37:14.848Z,13.18
2022-11-05T16:40:38.673Z,13.06
2022-11-05T16:44:00.466Z,13.00
2022-11-05T16:47:26.053Z,12.95
2022-11-05T16:50:47.612Z,12.82
2022-11-05T16:54:09.486Z,12.83
2022-11-05T16:57:32.059Z,12.79
2022-11-05T17:01:08.094Z,12.69
2022-11-05T17:04:29.677Z,12.68
2022-11-05T17:07:54.745Z,12.59
2022-11-05T17:11:21.648Z,12.53
2022-11-05T17:14:43.169Z,12.53
2022-11-05T17:18:05.503Z,12.49
2022-11-05T17:21:28.792Z,12.45
2022-11-05T17:24:55.121Z,12.45
2022-11-05T17:28:20.861Z,12.44
2022-11-05T17:31:44.923Z,12.38
2022-11-05T17:35:07.309Z,12.42
2022-11-05T17:38:28.919Z,12.44
2022-11-05T17:41:50.644Z,12.37
2022-11-05T17:45:15.659Z,12.34
2022-11-05T17:48:44.672Z,12.27
2022-11-05T17:52:08.467Z,12.27
2022-11-05T17:55:32.152Z,12.31
2022-11-05T17:58:55.182Z,12.23
2022-11-05T18:02:19.427Z,12.27
2022-11-05T18:05:44.053Z,12.24
2022-11-05T18:09:06.958Z,12.20
2022-11-05T18:12:30.671Z,12.27
2022-11-05T18:15:53.271Z,12.25
2022-11-05T18:19:14.939Z,12.18
2022-11-05T18:22:39.635Z,12.18
2022-11-05T18:26:01.318Z,12.13
2022-11-05T18:29:25.258Z,12.07
2022-11-05T18:32:47.747Z,12.08
2022-11-05T18:36:22.159Z,12.08
2022-11-05T18:39:46.597Z,12.11
2022-11-05T18:43:08.147Z,12.13
2022-11-05T18:46:56.661Z,12.10
2022-11-05T18:50:22.858Z,12.08
2022-11-05T18:53:47.996Z,12.08
2022-11-05T18:57:16.898Z,12.04
2022-11-05T19:00:41.865Z,11.98
2022-11-05T19:04:11.047Z,12.00
2022-11-05T19:07:37.071Z,12.00
2022-11-05T19:10:59.283Z,12.07
2022-11-05T19:14:23.012Z,12.07
2022-11-05T19:17:46.484Z,12.07
2022-11-05T19:21:17.653Z,12.05
2022-11-05T19:24:39.209Z,12.01
2022-11-05T19:28:03.444Z,12.04
2022-11-05T19:31:28.027Z,12.03
2022-11-05T19:34:49.584Z,11.97
2022-11-05T19:38:13.821Z,11.95
2022-11-05T19:41:35.887Z,11.90
2022-11-05T19:45:06.873Z,11.93
2022-11-05T19:48:39.133Z,11.91
2022-11-05T19:52:05.243Z,11.84
2022-11-05T19:55:26.815Z,11.77
2022-11-05T19:58:49.157Z,11.80
2022-11-05T20:02:16.048Z,12.37
2022-11-05T20:05:43.300Z,13.17
2022-11-05T20:09:21.461Z,13.57
2022-11-05T20:12:44.033Z,13.66
2022-11-05T20:16:17.811Z,13.61
2022-11-05T20:19:39.379Z,13.14
2022-11-05T20:23:00.933Z,12.80
2022-11-05T20:26:25.418Z,12.56
2022-11-05T20:29:50.307Z,12.46
2022-11-05T20:33:13.865Z,12.24
2022-11-05T20:36:41.374Z,12.20
2022-11-05T20:40:05.655Z,12.17
2022-11-05T20:43:30.278Z,12.08
2022-11-05T20:46:56.859Z,12.07
2022-11-05T20:50:28.208Z,12.01
2022-11-05T20:53:55.204Z,11.98
2022-11-05T20:57:16.710Z,12.16
2022-11-05T21:00:40.756Z,12.45
2022-11-05T21:04:03.372Z,12.78
2022-11-05T21:07:28.008Z,13.13
2022-11-05T21:10:51.385Z,13.33
2022-11-05T21:14:13.066Z,13.47
2022-11-05T21:17:35.404Z,13.54
2022-11-05T21:21:00.470Z,13.38
2022-11-05T21:24:22.005Z,13.02
2022-11-05T21:27:43.932Z,12.73
2022-11-05T21:31:06.662Z,12.51
2022-11-05T21:34:30.670Z,12.38
2022-11-05T21:37:52.248Z,12.27
2022-11-05T21:41:17.682Z,12.20
2022-11-05T21:44:39.226Z,12.07
2022-11-05T21:48:11.600Z,12.04
2022-11-05T21:51:55.339Z,12.05
2022-11-05T21:55:42.384Z,11.95
2022-11-05T21:59:24.884Z,11.90
2022-11-05T22:02:49.491Z,11.90
2022-11-05T22:06:16.100Z,11.86
2022-11-05T22:09:40.332Z,11.87
2022-11-05T22:13:04.244Z,11.86
2022-11-05T22:16:25.844Z,12.16
2022-11-05T22:19:49.476Z,12.51
2022-11-05T22:23:30.586Z,12.83
2022-11-05T22:26:52.162Z,12.79
2022-11-05T22:30:14.446Z,12.53
2022-11-05T22:33:36.026Z,12.35
2022-11-05T22:36:57.572Z,12.18
2022-11-05T22:40:22.202Z,12.07
2022-11-05T22:43:46.430Z,11.98
2022-11-05T22:47:08.057Z,11.93
2022-11-05T22:50:29.585Z,11.91
2022-11-05T22:53:51.540Z,11.90
2022-11-05T22:57:14.971Z,11.90
2022-11-05T23:00:37.632Z,11.87
2022-11-05T23:03:59.389Z,11.89
2022-11-05T23:07:39.506Z,11.95
2022-11-05T23:11:21.178Z,11.89
2022-11-05T23:14:42.889Z,11.93
2022-11-05T23:18:22.923Z,11.87
2022-11-05T23:22:02.797Z,11.90
2022-11-05T23:25:26.956Z,11.91
2022-11-05T23:28:48.477Z,11.90
2022-11-05T23:32:24.833Z,11.83
2022-11-05T23:36:07.347Z,11.79
2022-11-05T23:39:28.846Z,11.83
2022-11-05T23:43:09.481Z,11.83
2022-11-05T23:46:51.768Z,11.77
2022-11-05T23:50:15.503Z,11.79
2022-11-05T23:53:39.985Z,11.80
2022-11-05T23:57:01.736Z,11.77
